createdAt,value
2017-11-26T00:00:01.037Z,0.00
2017-11-26T00:01:00.978Z,0.00
2017-11-26T00:02:00.899Z,0.00
2017-11-26T00:03:00.832Z,0.00
2017-11-26T00:04:00.766Z,0.00
2017-11-26T00:05:00.705Z,0.00
2017-11-26T00:06:00.642Z,0.00
2017-11-26T00:07:00.588Z,0.00
2017-11-26T00:08:00.530Z,0.00
2017-11-26T00:09:00.453Z,0.00
2017-11-26T00:10:00.379Z,0.00
2017-11-26T00:11:00.313Z,0.00
2017-11-26T00:12:00.264Z,0.00
2017-11-26T00:13:00.191Z,0.00
2017-11-26T00:14:00.142Z,0.00
2017-11-26T00:15:00.059Z,0.00
2017-11-26T00:15:59.996Z,0.00
2017-11-26T00:16:59.937Z,0.00
2017-11-26T00:17:59.863Z,0.00
2017-11-26T00:18:59.804Z,0.00
2017-11-26T00:19:59.747Z,0.00
2017-11-26T00:20:59.688Z,0.00
2017-11-26T00:21:59.604Z,0.00
2017-11-26T00:22:59.543Z,0.00
2017-11-26T00:23:59.474Z,0.00
2017-11-26T00:24:59.415Z,0.00
2017-11-26T00:25:59.353Z,0.00
2017-11-26T00:26:59.284Z,0.00
2017-11-26T00:27:59.220Z,0.00
2017-11-26T00:28:59.158Z,0.00
2017-11-26T00:29:59.096Z,0.00
2017-11-26T00:30:59.024Z,0.00
2017-11-26T00:31:58.963Z,0.00
2017-11-26T00:32:58.920Z,0.00
2017-11-26T00:33:58.846Z,0.00
2017-11-26T00:34:58.772Z,0.00
2017-11-26T00:35:58.705Z,0.00
2017-11-26T00:36:58.633Z,0.00
2017-11-26T00:37:58.575Z,0.00
2017-11-26T00:38:58.511Z,0.00
2017-11-26T00:39:58.470Z,0.00
2017-11-26T00:40:58.398Z,0.00
2017-11-26T00:41:58.315Z,0.00
2017-11-26T00:42:58.252Z,0.00
2017-11-26T00:43:58.184Z,0.00
2017-11-26T00:44:58.124Z,0.00
2017-11-26T00:45:58.061Z,0.00
2017-11-26T00:46:58.011Z,0.00
2017-11-26T00:47:57.927Z,0.00
2017-11-26T00:48:57.865Z,0.00
2017-11-26T00:49:57.793Z,0.00
2017-11-26T00:50:57.732Z,0.00
2017-11-26T00:51:57.670Z,0.00
2017-11-26T00:52:57.613Z,0.00
2017-11-26T00:53:57.557Z,0.00
2017-11-26T00:54:57.476Z,0.00
2017-11-26T00:55:57.406Z,0.00
2017-11-26T00:56:57.360Z,0.00
2017-11-26T00:57:57.281Z,0.00
2017-11-26T00:58:57.219Z,0.00
2017-11-26T00:59:57.150Z,0.00
2017-11-26T01:00:57.083Z,0.00
2017-11-26T01:01:57.026Z,0.00
2017-11-26T01:02:56.960Z,0.00
2017-11-26T01:03:56.891Z,0.00
2017-11-26T01:04:56.828Z,0.00
2017-11-26T01:05:56.772Z,0.00
2017-11-26T01:06:56.987Z,0.00
2017-11-26T01:07:56.636Z,0.00
2017-11-26T01:08:56.569Z,0.00
2017-11-26T01:09:56.507Z,0.00
2017-11-26T01:10:56.440Z,0.00
2017-11-26T01:11:56.379Z,0.00
2017-11-26T01:12:56.349Z,0.00
2017-11-26T01:13:56.244Z,0.00
2017-11-26T01:14:56.181Z,0.00
2017-11-26T01:15:56.109Z,0.00
2017-11-26T01:16:56.050Z,0.00
2017-11-26T01:17:55.996Z,0.00
2017-11-26T01:18:55.929Z,0.00
2017-11-26T01:19:55.875Z,0.00
2017-11-26T01:20:55.807Z,0.00
2017-11-26T01:21:55.733Z,0.00
2017-11-26T01:22:55.658Z,0.00
2017-11-26T01:23:55.596Z,0.00
2017-11-26T01:24:55.536Z,0.00
2017-11-26T01:25:55.484Z,0.00
2017-11-26T01:26:55.415Z,0.00
2017-11-26T01:27:55.337Z,0.00
2017-11-26T01:28:55.268Z,0.00
2017-11-26T01:29:55.208Z,0.00
2017-11-26T01:30:55.148Z,0.00
2017-11-26T01:31:55.075Z,0.00
2017-11-26T01:32:55.017Z,0.00
2017-11-26T01:33:54.952Z,0.00
2017-11-26T01:34:54.879Z,0.00
2017-11-26T01:35:54.821Z,0.00
2017-11-26T01:36:54.753Z,0.00
2017-11-26T01:37:54.694Z,0.00
2017-11-26T01:38:54.622Z,0.00
2017-11-26T01:39:54.559Z,0.00
2017-11-26T01:40:54.495Z,0.00
2017-11-26T01:41:54.423Z,0.00
2017-11-26T01:42:54.368Z,0.00
2017-11-26T01:43:54.301Z,0.00
2017-11-26T01:44:54.246Z,0.00
2017-11-26T01:45:54.171Z,0.00
2017-11-26T01:46:54.103Z,0.00
2017-11-26T01:47:54.042Z,0.00
2017-11-26T01:48:53.998Z,0.00
2017-11-26T01:49:53.915Z,0.00
2017-11-26T01:50:53.853Z,0.00
2017-11-26T01:51:53.798Z,0.00
2017-11-26T01:52:53.718Z,0.00
2017-11-26T01:53:53.672Z,0.00
2017-11-26T01:54:53.582Z,0.00
2017-11-26T01:55:53.521Z,0.00
2017-11-26T01:56:53.460Z,0.00
2017-11-26T01:57:53.405Z,0.00
2017-11-26T01:58:53.360Z,0.00
2017-11-26T01:59:53.263Z,0.00
2017-11-26T02:00:53.200Z,0.00
2017-11-26T02:01:53.152Z,0.00
2017-11-26T02:02:53.068Z,0.00
2017-11-26T02:03:53.028Z,0.00
2017-11-26T02:04:52.937Z,0.00
2017-11-26T02:05:52.876Z,0.00
2017-11-26T02:06:52.809Z,0.00
2017-11-26T02:07:52.740Z,0.00
2017-11-26T02:08:52.683Z,0.00
2017-11-26T02:09:52.619Z,0.00
2017-11-26T02:10:52.563Z,0.00
2017-11-26T02:11:52.485Z,0.00
2017-11-26T02:12:52.420Z,0.00
2017-11-26T02:13:52.350Z,0.00
2017-11-26T02:14:52.288Z,0.00
2017-11-26T02:15:52.227Z,0.00
2017-11-26T02:16:52.203Z,0.00
2017-11-26T02:17:52.094Z,0.00
2017-11-26T02:18:52.032Z,0.00
2017-11-26T02:19:51.959Z,0.00
2017-11-26T02:20:51.898Z,0.00
2017-11-26T02:21:51.836Z,0.00
2017-11-26T02:22:51.777Z,0.00
2017-11-26T02:23:51.723Z,0.00
2017-11-26T02:24:51.642Z,0.00
2017-11-26T02:25:51.576Z,0.00
2017-11-26T02:26:51.521Z,0.00
2017-11-26T02:27:51.444Z,0.00
2017-11-26T02:28:51.412Z,0.00
2017-11-26T02:29:51.329Z,0.00
2017-11-26T02:30:51.253Z,0.00
2017-11-26T02:31:51.221Z,0.00
2017-11-26T02:32:51.115Z,0.00
2017-11-26T02:33:51.057Z,0.00
2017-11-26T02:34:51.003Z,0.00
2017-11-26T02:35:50.939Z,0.00
2017-11-26T02:36:50.882Z,0.00
2017-11-26T02:37:50.797Z,0.00
2017-11-26T02:38:50.737Z,0.00
2017-11-26T02:39:50.665Z,0.00
2017-11-26T02:40:50.604Z,0.00
2017-11-26T02:41:50.545Z,0.00
2017-11-26T02:42:50.487Z,0.00
2017-11-26T02:43:50.409Z,0.00
2017-11-26T02:44:50.350Z,0.00
2017-11-26T02:45:50.273Z,0.00
2017-11-26T02:46:50.214Z,0.00
2017-11-26T02:47:50.151Z,0.00
2017-11-26T02:48:50.093Z,0.00
2017-11-26T02:49:50.041Z,0.00
2017-11-26T02:50:49.978Z,0.00
2017-11-26T02:51:49.890Z,0.00
2017-11-26T02:52:49.832Z,0.00
2017-11-26T02:53:49.766Z,0.00
2017-11-26T02:54:49.706Z,0.00
2017-11-26T02:55:49.648Z,0.00
2017-11-26T02:56:49.567Z,0.00
2017-11-26T02:57:49.500Z,0.00
2017-11-26T02:58:49.433Z,0.00
2017-11-26T02:59:49.376Z,0.00
2017-11-26T03:00:49.309Z,0.00
2017-11-26T03:01:49.243Z,0.00
2017-11-26T03:02:49.201Z,0.00
2017-11-26T03:03:49.109Z,0.00
2017-11-26T03:04:49.039Z,0.00
2017-11-26T03:05:48.979Z,0.00
2017-11-26T03:06:48.921Z,0.00
2017-11-26T03:07:48.868Z,0.00
2017-11-26T03:08:48.804Z,0.00
2017-11-26T03:09:48.722Z,0.00
2017-11-26T03:10:48.658Z,0.00
2017-11-26T03:11:48.587Z,0.00
2017-11-26T03:12:48.537Z,0.00
2017-11-26T03:13:48.467Z,0.00
2017-11-26T03:14:48.411Z,0.00
2017-11-26T03:15:48.331Z,0.00
2017-11-26T03:16:48.267Z,0.00
2017-11-26T03:17:48.251Z,0.00
2017-11-26T03:18:48.136Z,0.00
2017-11-26T03:19:48.074Z,0.00
2017-11-26T03:20:48.018Z,0.00
2017-11-26T03:21:47.943Z,0.00
2017-11-26T03:22:47.888Z,0.00
2017-11-26T03:23:47.807Z,0.00
2017-11-26T03:24:47.747Z,0.00
2017-11-26T03:25:47.685Z,0.00
2017-11-26T03:26:47.625Z,0.00
2017-11-26T03:27:47.570Z,0.00
2017-11-26T03:28:47.488Z,0.00
2017-11-26T03:29:47.427Z,0.00
2017-11-26T03:30:47.358Z,0.00
2017-11-26T03:31:47.293Z,0.00
2017-11-26T03:32:47.232Z,0.00
2017-11-26T03:33:47.176Z,0.00
2017-11-26T03:34:47.100Z,0.00
2017-11-26T03:35:47.030Z,0.00
2017-11-26T03:36:46.964Z,0.00
2017-11-26T03:37:46.902Z,0.00
2017-11-26T03:38:46.840Z,0.00
2017-11-26T03:39:46.786Z,0.00
2017-11-26T03:40:46.708Z,0.00
2017-11-26T03:41:46.643Z,0.00
2017-11-26T03:42:46.573Z,0.00
2017-11-26T03:43:46.510Z,0.00
2017-11-26T03:44:46.448Z,0.00
2017-11-26T03:45:46.391Z,0.00
2017-11-26T03:46:46.339Z,0.00
2017-11-26T03:47:46.252Z,0.00
2017-11-26T03:48:46.187Z,0.00
2017-11-26T03:49:46.120Z,0.00
2017-11-26T03:50:46.070Z,0.00
2017-11-26T03:51:45.995Z,0.00
2017-11-26T03:52:45.931Z,0.00
2017-11-26T03:53:45.867Z,0.00
2017-11-26T03:54:45.800Z,0.00
2017-11-26T03:55:45.727Z,0.00
2017-11-26T03:56:45.665Z,0.00
2017-11-26T03:57:45.605Z,0.00
2017-11-26T03:58:45.535Z,0.00
2017-11-26T03:59:45.478Z,0.00
2017-11-26T04:00:45.409Z,0.00
2017-11-26T04:01:45.335Z,0.00
2017-11-26T04:02:45.287Z,0.00
2017-11-26T04:03:45.246Z,0.00
2017-11-26T04:04:45.155Z,0.00
2017-11-26T04:05:45.102Z,0.00
2017-11-26T04:06:45.019Z,0.00
2017-11-26T04:07:44.947Z,0.00
2017-11-26T04:08:44.922Z,0.00
2017-11-26T04:09:44.824Z,0.00
2017-11-26T04:10:44.762Z,0.00
2017-11-26T04:11:44.708Z,0.00
2017-11-26T04:12:44.625Z,0.00
2017-11-26T04:13:44.599Z,0.00
2017-11-26T04:14:44.495Z,0.00
2017-11-26T04:15:44.431Z,0.00
2017-11-26T04:16:44.371Z,0.00
2017-11-26T04:17:44.315Z,0.00
2017-11-26T04:18:44.239Z,0.00
2017-11-26T04:19:44.172Z,0.00
2017-11-26T04:20:44.099Z,0.00
2017-11-26T04:21:44.038Z,0.00
2017-11-26T04:22:43.977Z,0.00
2017-11-26T04:23:43.920Z,0.00
2017-11-26T04:24:43.871Z,0.00
2017-11-26T04:25:43.780Z,0.00
2017-11-26T04:26:43.722Z,0.00
2017-11-26T04:27:43.646Z,0.00
2017-11-26T04:28:43.584Z,0.00
2017-11-26T04:29:43.528Z,0.00
2017-11-26T04:30:43.473Z,0.00
2017-11-26T04:31:43.390Z,0.00
2017-11-26T04:32:43.318Z,0.00
2017-11-26T04:33:43.271Z,0.00
2017-11-26T04:34:43.200Z,0.00
2017-11-26T04:35:43.134Z,0.00
2017-11-26T04:36:43.081Z,0.00
2017-11-26T04:37:42.998Z,0.00
2017-11-26T04:38:42.939Z,0.00
2017-11-26T04:39:42.862Z,0.00
2017-11-26T04:40:42.803Z,0.00
2017-11-26T04:41:42.742Z,0.00
2017-11-26T04:42:42.686Z,0.00
2017-11-26T04:43:42.607Z,0.00
2017-11-26T04:44:42.542Z,0.00
2017-11-26T04:45:42.470Z,0.00
2017-11-26T04:46:42.426Z,0.00
2017-11-26T04:47:42.349Z,0.00
2017-11-26T04:48:42.279Z,0.00
2017-11-26T04:49:42.245Z,0.00
2017-11-26T04:50:42.151Z,0.00
2017-11-26T04:51:42.079Z,0.00
2017-11-26T04:52:42.018Z,0.00
2017-11-26T04:53:41.957Z,0.00
2017-11-26T04:54:41.900Z,0.00
2017-11-26T04:55:41.825Z,0.00
2017-11-26T04:56:41.761Z,0.00
2017-11-26T04:57:41.691Z,0.00
2017-11-26T04:58:41.625Z,0.00
2017-11-26T04:59:41.587Z,0.00
2017-11-26T05:00:41.510Z,0.00
2017-11-26T05:01:41.451Z,0.00
2017-11-26T05:02:41.370Z,0.00
2017-11-26T05:03:41.304Z,0.00
2017-11-26T05:04:41.255Z,0.00
2017-11-26T05:05:41.173Z,0.00
2017-11-26T05:06:41.113Z,0.00
2017-11-26T05:07:41.058Z,0.00
2017-11-26T05:08:40.979Z,0.00
2017-11-26T05:09:40.915Z,0.00
2017-11-26T05:10:40.841Z,0.00
2017-11-26T05:11:40.782Z,0.00
2017-11-26T05:12:40.721Z,0.00
2017-11-26T05:13:40.665Z,0.00
2017-11-26T05:14:40.597Z,0.00
2017-11-26T05:15:40.520Z,0.00
2017-11-26T05:16:40.450Z,0.00
2017-11-26T05:17:40.388Z,0.00
2017-11-26T05:18:40.327Z,0.00
2017-11-26T05:19:40.280Z,0.00
2017-11-26T05:20:40.197Z,0.00
2017-11-26T05:21:40.129Z,0.00
2017-11-26T05:22:40.076Z,0.00
2017-11-26T05:23:39.996Z,0.00
2017-11-26T05:24:39.933Z,0.00
2017-11-26T05:25:39.876Z,0.00
2017-11-26T05:26:39.822Z,0.00
2017-11-26T05:27:39.754Z,0.00
2017-11-26T05:28:39.665Z,0.00
2017-11-26T05:29:39.605Z,0.00
2017-11-26T05:30:39.542Z,0.00
2017-11-26T05:31:39.472Z,0.00
2017-11-26T05:32:39.429Z,0.00
2017-11-26T05:33:39.347Z,0.00
2017-11-26T05:34:39.283Z,0.00
2017-11-26T05:35:39.213Z,0.00
2017-11-26T05:36:39.151Z,0.00
2017-11-26T05:37:39.091Z,0.00
2017-11-26T05:38:39.036Z,0.00
2017-11-26T05:39:38.955Z,0.00
2017-11-26T05:40:38.891Z,0.00
2017-11-26T05:41:38.820Z,0.00
2017-11-26T05:42:38.761Z,0.00
2017-11-26T05:43:38.700Z,0.00
2017-11-26T05:44:38.642Z,0.00
2017-11-26T05:45:38.560Z,0.00
2017-11-26T05:46:38.501Z,0.00
2017-11-26T05:47:38.428Z,0.00
2017-11-26T05:48:38.373Z,0.00
2017-11-26T05:49:38.310Z,0.00
2017-11-26T05:50:38.251Z,0.00
2017-11-26T05:51:38.174Z,0.00
2017-11-26T05:52:38.111Z,0.00
2017-11-26T05:53:38.036Z,0.00
2017-11-26T05:54:37.976Z,0.00
2017-11-26T05:55:37.923Z,0.00
2017-11-26T05:56:37.848Z,0.00
2017-11-26T05:57:37.802Z,0.00
2017-11-26T05:58:37.717Z,0.00
2017-11-26T05:59:37.670Z,0.00
2017-11-26T06:00:37.607Z,0.00
2017-11-26T06:01:37.525Z,0.00
2017-11-26T06:02:37.463Z,0.00
2017-11-26T06:03:37.407Z,0.00
2017-11-26T06:04:37.329Z,0.00
2017-11-26T06:05:37.264Z,0.00
2017-11-26T06:06:37.192Z,0.00
2017-11-26T06:07:37.132Z,0.00
2017-11-26T06:08:37.070Z,0.00
2017-11-26T06:09:37.014Z,0.00
2017-11-26T06:10:36.942Z,0.00
2017-11-26T06:11:36.870Z,0.00
2017-11-26T06:12:36.800Z,0.00
2017-11-26T06:13:36.778Z,0.00
2017-11-26T06:14:36.680Z,0.00
2017-11-26T06:15:36.621Z,0.00
2017-11-26T06:16:36.553Z,0.00
2017-11-26T06:17:36.480Z,0.00
2017-11-26T06:18:36.417Z,0.00
2017-11-26T06:19:36.349Z,0.00
2017-11-26T06:20:36.285Z,0.00
2017-11-26T06:21:36.230Z,0.00
2017-11-26T06:22:36.174Z,0.00
2017-11-26T06:23:36.101Z,0.00
2017-11-26T06:24:36.021Z,0.00
2017-11-26T06:25:35.960Z,0.00
2017-11-26T06:26:35.895Z,0.00
2017-11-26T06:27:35.834Z,0.00
2017-11-26T06:28:35.783Z,0.00
2017-11-26T06:29:35.700Z,0.00
2017-11-26T06:30:35.633Z,0.00
2017-11-26T06:31:35.565Z,0.00
2017-11-26T06:32:35.500Z,0.00
2017-11-26T06:33:35.449Z,0.00
2017-11-26T06:34:35.388Z,0.00
2017-11-26T06:35:35.304Z,0.00
2017-11-26T06:36:35.241Z,0.00
2017-11-26T06:37:35.175Z,0.00
2017-11-26T06:38:35.111Z,0.00
2017-11-26T06:39:35.049Z,0.00
2017-11-26T06:40:34.992Z,0.00
2017-11-26T06:41:34.938Z,0.00
2017-11-26T06:42:34.851Z,0.00
2017-11-26T06:43:34.779Z,0.00
2017-11-26T06:44:34.719Z,0.00
2017-11-26T06:45:34.657Z,0.00
2017-11-26T06:46:34.600Z,5.63
2017-11-26T06:47:34.529Z,5.63
2017-11-26T06:48:34.460Z,5.63
2017-11-26T06:49:34.413Z,5.63
2017-11-26T06:50:34.329Z,5.63
2017-11-26T06:51:34.266Z,5.63
2017-11-26T06:52:34.206Z,5.63
2017-11-26T06:53:34.152Z,5.63
2017-11-26T06:54:34.073Z,5.63
2017-11-26T06:55:34.009Z,5.63
2017-11-26T06:56:33.943Z,11.25
2017-11-26T06:57:33.879Z,11.25
2017-11-26T06:58:33.815Z,11.25
2017-11-26T06:59:33.758Z,11.25
2017-11-26T07:00:33.684Z,11.25
2017-11-26T07:01:33.616Z,11.25
2017-11-26T07:02:33.555Z,11.25
2017-11-26T07:03:33.486Z,11.25
2017-11-26T07:04:33.426Z,11.25
2017-11-26T07:05:33.366Z,16.88
2017-11-26T07:06:33.298Z,22.50
2017-11-26T07:07:33.233Z,22.50
2017-11-26T07:08:33.168Z,28.13
2017-11-26T07:09:33.097Z,33.75
2017-11-26T07:10:33.038Z,45.00
2017-11-26T07:11:32.975Z,56.25
2017-11-26T07:12:32.916Z,73.13
2017-11-26T07:13:32.862Z,78.75
2017-11-26T07:14:32.781Z,84.38
2017-11-26T07:15:32.715Z,90.00
2017-11-26T07:16:32.647Z,95.63
2017-11-26T07:17:32.592Z,101.25
2017-11-26T07:18:32.525Z,101.25
2017-11-26T07:19:32.468Z,106.88
2017-11-26T07:20:32.395Z,106.88
2017-11-26T07:21:32.330Z,118.13
2017-11-26T07:22:32.265Z,118.13
2017-11-26T07:23:32.201Z,123.75
2017-11-26T07:24:32.138Z,123.75
2017-11-26T07:25:32.077Z,123.75
2017-11-26T07:26:32.019Z,135.00
2017-11-26T07:27:31.941Z,135.00
2017-11-26T07:28:31.880Z,146.25
2017-11-26T07:29:31.817Z,146.25
2017-11-26T07:30:31.747Z,168.75
2017-11-26T07:31:31.684Z,180.00
2017-11-26T07:32:31.627Z,163.13
2017-11-26T07:33:31.573Z,168.75
2017-11-26T07:34:31.490Z,168.75
2017-11-26T07:35:31.423Z,168.75
2017-11-26T07:36:31.358Z,180.00
2017-11-26T07:37:31.297Z,185.63
2017-11-26T07:38:31.235Z,196.88
2017-11-26T07:39:31.179Z,208.13
2017-11-26T07:40:31.127Z,219.38
2017-11-26T07:41:31.042Z,196.88
2017-11-26T07:42:30.977Z,230.63
2017-11-26T07:43:30.909Z,241.88
2017-11-26T07:44:30.848Z,202.50
2017-11-26T07:45:30.787Z,140.63
2017-11-26T07:46:30.731Z,90.00
2017-11-26T07:47:30.655Z,95.63
2017-11-26T07:48:30.591Z,95.63
2017-11-26T07:49:30.533Z,95.63
2017-11-26T07:50:30.460Z,101.25
2017-11-26T07:51:30.397Z,95.63
2017-11-26T07:52:30.339Z,90.00
2017-11-26T07:53:30.270Z,84.38
2017-11-26T07:54:30.233Z,118.13
2017-11-26T07:55:30.144Z,95.63
2017-11-26T07:56:30.073Z,90.00
2017-11-26T07:57:30.011Z,106.88
2017-11-26T07:58:29.951Z,112.50
2017-11-26T07:59:29.890Z,123.75
2017-11-26T08:00:29.834Z,157.50
2017-11-26T08:01:29.758Z,180.00
2017-11-26T08:02:29.697Z,185.63
2017-11-26T08:03:29.632Z,191.25
2017-11-26T08:04:29.563Z,208.13
2017-11-26T08:05:29.505Z,202.50
2017-11-26T08:06:29.443Z,196.88
2017-11-26T08:07:29.386Z,219.38
2017-11-26T08:08:29.313Z,219.38
2017-11-26T08:09:29.248Z,213.75
2017-11-26T08:10:29.185Z,270.00
2017-11-26T08:11:29.117Z,348.75
2017-11-26T08:12:29.056Z,388.13
2017-11-26T08:13:28.995Z,410.63
2017-11-26T08:14:28.925Z,444.38
2017-11-26T08:15:28.864Z,438.75
2017-11-26T08:16:28.801Z,438.75
2017-11-26T08:17:28.738Z,466.88
2017-11-26T08:18:28.682Z,466.88
2017-11-26T08:19:28.611Z,466.88
2017-11-26T08:20:28.551Z,483.75
2017-11-26T08:21:28.495Z,461.25
2017-11-26T08:22:28.435Z,483.75
2017-11-26T08:23:28.361Z,478.13
2017-11-26T08:24:28.300Z,444.38
2017-11-26T08:25:28.234Z,466.88
2017-11-26T08:26:28.167Z,466.88
2017-11-26T08:27:28.105Z,511.88
2017-11-26T08:28:28.049Z,540.00
2017-11-26T08:29:27.989Z,517.50
2017-11-26T08:30:27.932Z,466.88
2017-11-26T08:31:27.877Z,489.38
2017-11-26T08:32:27.800Z,534.38
2017-11-26T08:33:27.739Z,652.50
2017-11-26T08:34:27.671Z,596.25
2017-11-26T08:35:27.618Z,528.75
2017-11-26T08:36:27.549Z,438.75
2017-11-26T08:37:27.491Z,376.88
2017-11-26T08:38:27.439Z,191.25
2017-11-26T08:39:27.374Z,163.13
2017-11-26T08:40:27.320Z,135.00
2017-11-26T08:41:27.266Z,112.50
2017-11-26T08:42:27.186Z,118.13
2017-11-26T08:43:27.121Z,135.00
2017-11-26T08:44:27.063Z,129.38
2017-11-26T08:45:26.995Z,140.63
2017-11-26T08:46:26.937Z,151.88
2017-11-26T08:47:26.877Z,163.13
2017-11-26T08:48:26.818Z,163.13
2017-11-26T08:49:26.756Z,180.00
2017-11-26T08:50:26.707Z,191.25
2017-11-26T08:51:26.654Z,168.75
2017-11-26T08:52:26.575Z,157.50
2017-11-26T08:53:26.512Z,168.75
2017-11-26T08:54:26.455Z,163.13
2017-11-26T08:55:26.383Z,151.88
2017-11-26T08:56:26.340Z,157.50
2017-11-26T08:57:26.265Z,151.88
2017-11-26T08:58:26.205Z,151.88
2017-11-26T08:59:26.149Z,157.50
2017-11-26T09:00:26.094Z,146.25
2017-11-26T09:01:26.018Z,157.50
2017-11-26T09:02:25.959Z,180.00
2017-11-26T09:03:25.897Z,180.00
2017-11-26T09:04:25.826Z,180.00
2017-11-26T09:05:25.766Z,180.00
2017-11-26T09:06:25.708Z,185.63
2017-11-26T09:07:25.647Z,174.38
2017-11-26T09:08:25.592Z,185.63
2017-11-26T09:09:25.536Z,168.75
2017-11-26T09:10:25.460Z,174.38
2017-11-26T09:11:25.394Z,202.50
2017-11-26T09:12:25.335Z,225.00
2017-11-26T09:13:25.269Z,225.00
2017-11-26T09:14:25.207Z,225.00
2017-11-26T09:15:25.149Z,213.75
2017-11-26T09:16:25.083Z,202.50
2017-11-26T09:17:25.034Z,208.13
2017-11-26T09:18:24.978Z,208.13
2017-11-26T09:19:24.899Z,202.50
2017-11-26T09:20:24.839Z,219.38
2017-11-26T09:21:24.771Z,241.88
2017-11-26T09:22:24.709Z,247.50
2017-11-26T09:23:24.649Z,258.75
2017-11-26T09:24:24.591Z,275.63
2017-11-26T09:25:24.532Z,292.50
2017-11-26T09:26:24.483Z,315.00
2017-11-26T09:27:24.406Z,303.75
2017-11-26T09:28:24.338Z,292.50
2017-11-26T09:29:24.279Z,264.38
2017-11-26T09:30:24.208Z,241.88
2017-11-26T09:31:24.150Z,225.00
2017-11-26T09:32:24.090Z,219.38
2017-11-26T09:33:24.029Z,196.88
2017-11-26T09:34:23.973Z,180.00
2017-11-26T09:35:23.918Z,196.88
2017-11-26T09:36:23.844Z,225.00
2017-11-26T09:37:23.783Z,230.63
2017-11-26T09:38:23.717Z,241.88
2017-11-26T09:39:23.649Z,213.75
2017-11-26T09:40:23.588Z,309.38
2017-11-26T09:41:23.528Z,433.13
2017-11-26T09:42:23.472Z,433.13
2017-11-26T09:43:23.415Z,427.50
2017-11-26T09:44:23.360Z,309.38
2017-11-26T09:45:23.282Z,270.00
2017-11-26T09:46:23.222Z,253.13
2017-11-26T09:47:23.154Z,230.63
2017-11-26T09:48:23.092Z,236.25
2017-11-26T09:49:23.030Z,225.00
2017-11-26T09:50:22.972Z,213.75
2017-11-26T09:51:22.916Z,247.50
2017-11-26T09:52:22.857Z,292.50
2017-11-26T09:53:22.784Z,275.63
2017-11-26T09:54:22.723Z,264.38
2017-11-26T09:55:22.658Z,213.75
2017-11-26T09:56:22.589Z,185.63
2017-11-26T09:57:22.532Z,157.50
2017-11-26T09:58:22.478Z,174.38
2017-11-26T09:59:22.411Z,185.63
2017-11-26T10:00:22.355Z,163.13
2017-11-26T10:01:22.300Z,196.88
2017-11-26T10:02:22.225Z,180.00
2017-11-26T10:03:22.156Z,180.00
2017-11-26T10:04:22.098Z,202.50
2017-11-26T10:05:22.031Z,174.38
2017-11-26T10:06:21.974Z,168.75
2017-11-26T10:07:21.915Z,140.63
2017-11-26T10:08:21.853Z,146.25
2017-11-26T10:09:21.798Z,123.75
2017-11-26T10:10:21.742Z,129.38
2017-11-26T10:11:21.660Z,146.25
2017-11-26T10:12:21.600Z,168.75
2017-11-26T10:13:21.531Z,185.63
2017-11-26T10:14:21.471Z,185.63
2017-11-26T10:15:21.410Z,174.38
2017-11-26T10:16:21.349Z,196.88
2017-11-26T10:17:21.294Z,202.50
2017-11-26T10:18:21.266Z,253.13
2017-11-26T10:19:21.217Z,298.13
2017-11-26T10:20:21.132Z,270.00
2017-11-26T10:21:21.342Z,281.25
2017-11-26T10:22:21.102Z,303.75
2017-11-26T10:23:20.978Z,286.88
2017-11-26T10:24:20.939Z,303.75
2017-11-26T10:25:20.871Z,298.13
2017-11-26T10:26:20.913Z,292.50
2017-11-26T10:27:20.751Z,320.63
2017-11-26T10:28:20.692Z,286.88
2017-11-26T10:29:20.562Z,275.63
2017-11-26T10:30:20.479Z,258.75
2017-11-26T10:31:20.470Z,241.88
2017-11-26T10:32:20.398Z,275.63
2017-11-26T10:33:20.282Z,315.00
2017-11-26T10:34:20.264Z,320.63
2017-11-26T10:35:20.536Z,326.25
2017-11-26T10:36:20.129Z,309.38
2017-11-26T10:37:20.135Z,281.25
2017-11-26T10:38:19.987Z,309.38
2017-11-26T10:39:19.972Z,303.75
2017-11-26T10:40:19.926Z,320.63
2017-11-26T10:41:19.798Z,371.25
2017-11-26T10:42:20.314Z,309.38
2017-11-26T10:43:19.684Z,309.38
2017-11-26T10:44:19.688Z,371.25
2017-11-26T10:45:19.843Z,331.88
2017-11-26T10:46:19.539Z,303.75
2017-11-26T10:47:19.494Z,270.00
2017-11-26T10:48:19.512Z,253.13
2017-11-26T10:49:19.618Z,258.75
2017-11-26T10:50:19.274Z,303.75
2017-11-26T10:51:19.186Z,298.13
2017-11-26T10:52:19.151Z,343.13
2017-11-26T10:53:19.131Z,354.38
2017-11-26T10:54:19.009Z,354.38
2017-11-26T10:55:18.933Z,393.75
2017-11-26T10:56:18.973Z,393.75
2017-11-26T10:57:18.808Z,410.63
2017-11-26T10:58:18.736Z,416.25
2017-11-26T10:59:18.787Z,399.38
2017-11-26T11:00:18.711Z,410.63
2017-11-26T11:01:18.564Z,371.25
2017-11-26T11:02:18.770Z,337.50
2017-11-26T11:03:18.602Z,376.88
2017-11-26T11:04:18.607Z,399.38
2017-11-26T11:05:18.386Z,382.50
2017-11-26T11:06:18.340Z,388.13
2017-11-26T11:07:18.189Z,421.88
2017-11-26T11:08:18.211Z,376.88
2017-11-26T11:09:18.156Z,331.88
2017-11-26T11:10:18.125Z,365.63
2017-11-26T11:11:17.956Z,371.25
2017-11-26T11:12:17.858Z,331.88
2017-11-26T11:13:17.805Z,309.38
2017-11-26T11:14:17.774Z,286.88
2017-11-26T11:15:17.680Z,303.75
2017-11-26T11:16:17.785Z,331.88
2017-11-26T11:17:17.587Z,343.13
2017-11-26T11:18:17.584Z,348.75
2017-11-26T11:19:17.453Z,320.63
2017-11-26T11:20:17.414Z,264.38
2017-11-26T11:21:17.661Z,264.38
2017-11-26T11:22:17.234Z,253.13
2017-11-26T11:23:17.190Z,236.25
2017-11-26T11:24:17.123Z,258.75
2017-11-26T11:25:17.055Z,292.50
2017-11-26T11:26:17.013Z,286.88
2017-11-26T11:27:17.097Z,320.63
2017-11-26T11:28:16.927Z,275.63
2017-11-26T11:29:16.939Z,281.25
2017-11-26T11:30:16.783Z,264.38
2017-11-26T11:31:16.747Z,309.38
2017-11-26T11:32:16.657Z,337.50
2017-11-26T11:33:16.640Z,309.38
2017-11-26T11:34:16.537Z,286.88
2017-11-26T11:35:16.490Z,286.88
2017-11-26T11:36:16.605Z,286.88
2017-11-26T11:37:16.341Z,286.88
2017-11-26T11:38:16.468Z,281.25
2017-11-26T11:39:16.222Z,281.25
2017-11-26T11:40:16.204Z,303.75
2017-11-26T11:41:16.125Z,309.38
2017-11-26T11:42:16.034Z,298.13
2017-11-26T11:43:16.112Z,286.88
2017-11-26T11:44:16.026Z,275.63
2017-11-26T11:45:15.907Z,292.50
2017-11-26T11:46:15.775Z,298.13
2017-11-26T11:47:15.847Z,275.63
2017-11-26T11:48:15.860Z,253.13
2017-11-26T11:49:15.626Z,253.13
2017-11-26T11:50:15.588Z,241.88
2017-11-26T11:51:15.617Z,230.63
2017-11-26T11:52:15.457Z,236.25
2017-11-26T11:53:15.694Z,247.50
2017-11-26T11:54:15.496Z,247.50
2017-11-26T11:55:15.263Z,236.25
2017-11-26T11:56:15.290Z,247.50
2017-11-26T11:57:15.331Z,230.63
2017-11-26T11:58:15.053Z,219.38
2017-11-26T11:59:15.065Z,241.88
2017-11-26T12:00:14.948Z,236.25
2017-11-26T12:01:14.851Z,241.88
2017-11-26T12:02:14.848Z,247.50
2017-11-26T12:03:14.753Z,236.25
2017-11-26T12:04:14.724Z,247.50
2017-11-26T12:05:14.631Z,275.63
2017-11-26T12:06:14.625Z,281.25
2017-11-26T12:07:14.581Z,275.63
2017-11-26T12:08:14.473Z,247.50
2017-11-26T12:09:14.430Z,247.50
2017-11-26T12:10:14.393Z,253.13
2017-11-26T12:11:14.270Z,241.88
2017-11-26T12:12:14.234Z,247.50
2017-11-26T12:13:14.149Z,264.38
2017-11-26T12:14:14.073Z,264.38
2017-11-26T12:15:13.994Z,247.50
2017-11-26T12:16:13.931Z,230.63
2017-11-26T12:17:14.573Z,219.38
2017-11-26T12:18:13.808Z,213.75
2017-11-26T12:19:13.744Z,219.38
2017-11-26T12:20:13.731Z,196.88
2017-11-26T12:21:13.701Z,180.00
2017-11-26T12:22:13.560Z,180.00
2017-11-26T12:23:13.519Z,185.63
2017-11-26T12:24:13.464Z,196.88
2017-11-26T12:25:13.358Z,168.75
2017-11-26T12:26:13.366Z,151.88
2017-11-26T12:27:13.275Z,151.88
2017-11-26T12:28:13.344Z,140.63
2017-11-26T12:29:13.170Z,118.13
2017-11-26T12:30:13.149Z,118.13
2017-11-26T12:31:13.065Z,118.13
2017-11-26T12:32:13.112Z,106.88
2017-11-26T12:33:12.922Z,106.88
2017-11-26T12:34:12.901Z,101.25
2017-11-26T12:35:12.767Z,84.38
2017-11-26T12:36:12.681Z,78.75
2017-11-26T12:37:12.696Z,67.50
2017-11-26T12:38:12.589Z,61.88
2017-11-26T12:39:12.498Z,61.88
2017-11-26T12:40:12.582Z,56.25
2017-11-26T12:41:12.407Z,56.25
2017-11-26T12:42:12.385Z,61.88
2017-11-26T12:43:12.268Z,67.50
2017-11-26T12:44:12.190Z,67.50
2017-11-26T12:45:12.332Z,73.13
2017-11-26T12:46:12.130Z,73.13
2017-11-26T12:47:12.022Z,61.88
2017-11-26T12:48:11.962Z,67.50
2017-11-26T12:49:11.904Z,78.75
2017-11-26T12:50:11.882Z,95.63
2017-11-26T12:51:11.779Z,101.25
2017-11-26T12:52:11.711Z,118.13
2017-11-26T12:53:11.712Z,112.50
2017-11-26T12:54:11.598Z,118.13
2017-11-26T12:55:11.591Z,118.13